createdAt,value
2019-01-24T00:00:00.311Z,51.03
2019-01-24T00:01:00.471Z,49.56
2019-01-24T00:02:00.640Z,46.88
2019-01-24T00:03:00.811Z,49.32
2019-01-24T00:04:00.961Z,53.22
2019-01-24T00:05:01.119Z,48.10
2019-01-24T00:06:01.289Z,46.39
2019-01-24T00:07:01.455Z,47.61
2019-01-24T00:08:01.627Z,54.20
2019-01-24T00:09:01.787Z,44.68
2019-01-24T00:10:01.955Z,45.41
2019-01-24T00:11:02.127Z,45.41
2019-01-24T00:12:02.292Z,52.25
2019-01-24T00:13:02.462Z,44.68
2019-01-24T00:14:02.638Z,45.90
2019-01-24T00:15:02.796Z,50.78
2019-01-24T00:16:02.957Z,59.08
2019-01-24T00:17:03.128Z,54.69
2019-01-24T00:18:03.282Z,56.15
2019-01-24T00:19:03.459Z,50.05
2019-01-24T00:20:03.623Z,56.88
2019-01-24T00:21:03.788Z,58.59
2019-01-24T00:22:03.970Z,49.32
2019-01-24T00:23:04.134Z,48.10
2019-01-24T00:24:04.288Z,50.54
2019-01-24T00:25:04.451Z,46.39
2019-01-24T00:26:04.630Z,45.41
2019-01-24T00:27:04.798Z,45.90
2019-01-24T00:28:04.960Z,59.33
2019-01-24T00:29:05.129Z,51.76
2019-01-24T00:30:05.303Z,48.10
2019-01-24T00:31:05.462Z,45.90
2019-01-24T00:32:05.626Z,45.17
2019-01-24T00:33:05.798Z,49.80
2019-01-24T00:34:05.958Z,56.40
2019-01-24T00:35:06.122Z,53.47
2019-01-24T00:36:06.287Z,60.06
2019-01-24T00:37:06.453Z,52.49
2019-01-24T00:38:06.619Z,54.20
2019-01-24T00:39:06.787Z,51.03
2019-01-24T00:40:06.957Z,54.93
2019-01-24T00:41:07.125Z,54.69
2019-01-24T00:42:07.288Z,58.11
2019-01-24T00:43:07.456Z,47.12
2019-01-24T00:44:07.663Z,49.56
2019-01-24T00:45:07.809Z,47.12
2019-01-24T00:46:07.978Z,53.96
2019-01-24T00:47:08.145Z,64.21
2019-01-24T00:48:08.317Z,59.81
2019-01-24T00:49:08.485Z,58.59
2019-01-24T00:50:08.649Z,46.63
2019-01-24T00:51:08.827Z,45.65
2019-01-24T00:52:08.987Z,47.12
2019-01-24T00:53:09.150Z,49.07
2019-01-24T00:54:09.312Z,45.90
2019-01-24T00:55:09.480Z,46.14
2019-01-24T00:56:09.660Z,57.13
2019-01-24T00:57:09.810Z,58.11
2019-01-24T00:58:09.982Z,46.63
2019-01-24T00:59:10.146Z,45.41
2019-01-24T01:00:10.315Z,45.90
2019-01-24T01:01:10.482Z,46.63
2019-01-24T01:02:10.648Z,45.65
2019-01-24T01:03:10.844Z,47.36
2019-01-24T01:04:10.996Z,52.49
2019-01-24T01:05:11.152Z,52.98
2019-01-24T01:06:11.318Z,51.51
2019-01-24T01:07:11.490Z,51.03
2019-01-24T01:08:11.654Z,66.89
2019-01-24T01:09:11.829Z,54.93
2019-01-24T01:10:11.987Z,54.69
2019-01-24T01:11:12.148Z,45.90
2019-01-24T01:12:12.322Z,48.34
2019-01-24T01:13:12.487Z,54.44
2019-01-24T01:15:12.816Z,49.56
2019-01-24T01:16:12.982Z,50.78
2019-01-24T01:17:13.409Z,53.71
2019-01-24T01:18:13.326Z,50.78
2019-01-24T01:19:13.488Z,59.57
2019-01-24T01:20:13.653Z,52.00
2019-01-24T01:21:13.820Z,66.16
2019-01-24T01:22:13.992Z,59.57
2019-01-24T01:23:14.153Z,62.01
2019-01-24T01:24:14.321Z,58.11
2019-01-24T01:25:14.485Z,56.64
2019-01-24T01:26:14.665Z,60.30
2019-01-24T01:27:14.819Z,47.12
2019-01-24T01:28:15.002Z,44.19
2019-01-24T01:29:15.165Z,45.90
2019-01-24T01:30:15.330Z,47.61
2019-01-24T01:31:15.498Z,49.80
2019-01-24T01:32:15.667Z,46.88
2019-01-24T01:33:15.830Z,61.28
2019-01-24T01:34:15.993Z,61.28
2019-01-24T01:35:16.160Z,53.47
2019-01-24T01:36:16.347Z,45.65
2019-01-24T01:37:16.488Z,48.34
2019-01-24T01:38:17.509Z,46.88
2019-01-24T01:39:16.819Z,45.90
2019-01-24T01:40:17.001Z,47.36
2019-01-24T01:41:17.154Z,44.92
2019-01-24T01:42:17.316Z,54.69
2019-01-24T01:43:17.483Z,54.20
2019-01-24T01:44:17.650Z,49.56
2019-01-24T01:45:17.814Z,56.40
2019-01-24T01:46:18.002Z,46.39
2019-01-24T01:47:18.166Z,56.40
2019-01-24T01:48:18.341Z,51.51
2019-01-24T01:49:18.500Z,46.88
2019-01-24T01:50:18.677Z,49.56
2019-01-24T01:51:18.828Z,51.03
2019-01-24T01:52:19.003Z,46.88
2019-01-24T01:53:19.169Z,58.84
2019-01-24T01:54:19.336Z,61.04
2019-01-24T01:55:19.503Z,66.41
2019-01-24T01:56:19.714Z,58.59
2019-01-24T01:57:19.921Z,76.90
2019-01-24T01:58:20.054Z,47.61
2019-01-24T01:59:20.218Z,53.47
2019-01-24T02:00:20.390Z,60.55
2019-01-24T02:01:20.548Z,49.32
2019-01-24T02:02:20.710Z,62.26
2019-01-24T02:03:20.872Z,63.72
2019-01-24T02:04:21.037Z,57.86
2019-01-24T02:05:21.233Z,44.92
2019-01-24T02:06:21.371Z,54.93
2019-01-24T02:07:21.537Z,53.47
2019-01-24T02:08:21.699Z,49.32
2019-01-24T02:09:21.873Z,45.41
2019-01-24T02:10:22.740Z,46.14
2019-01-24T02:11:22.198Z,46.63
2019-01-24T02:12:22.377Z,48.83
2019-01-24T02:13:22.531Z,47.12
2019-01-24T02:14:22.680Z,46.63
2019-01-24T02:15:22.847Z,56.15
2019-01-24T02:16:23.004Z,54.69
2019-01-24T02:17:23.155Z,51.27
2019-01-24T02:18:23.326Z,52.73
2019-01-24T02:19:23.497Z,49.32
2019-01-24T02:20:23.666Z,50.54
2019-01-24T02:21:23.837Z,45.65
2019-01-24T02:22:24.003Z,52.49
2019-01-24T02:23:24.156Z,59.57
2019-01-24T02:24:24.331Z,47.12
2019-01-24T02:25:24.482Z,72.27
2019-01-24T02:26:24.649Z,49.07
2019-01-24T02:27:24.830Z,46.39
2019-01-24T02:28:24.991Z,44.92
2019-01-24T02:29:25.159Z,46.14
2019-01-24T02:30:25.328Z,45.90
2019-01-24T02:31:25.492Z,57.62
2019-01-24T02:32:25.653Z,50.05
2019-01-24T02:33:25.837Z,55.66
2019-01-24T02:34:25.983Z,46.88
2019-01-24T02:35:26.158Z,47.85
2019-01-24T02:36:26.329Z,46.63
2019-01-24T02:37:26.494Z,47.36
2019-01-24T02:38:26.665Z,47.61
2019-01-24T02:39:26.829Z,48.83
2019-01-24T02:40:27.017Z,49.80
2019-01-24T02:41:27.166Z,46.63
2019-01-24T02:42:27.334Z,48.10
2019-01-24T02:43:27.501Z,54.69
2019-01-24T02:44:27.669Z,50.78
2019-01-24T02:45:27.836Z,45.65
2019-01-24T02:46:28.002Z,45.17
2019-01-24T02:47:28.173Z,46.39
2019-01-24T02:48:28.335Z,45.65
2019-01-24T02:49:28.501Z,45.17
2019-01-24T02:50:28.664Z,46.14
2019-01-24T02:51:28.832Z,51.03
2019-01-24T02:52:28.997Z,46.39
2019-01-24T02:53:29.172Z,47.36
2019-01-24T02:54:29.322Z,51.76
2019-01-24T02:55:29.488Z,54.20
2019-01-24T02:56:29.661Z,45.17
2019-01-24T02:57:29.826Z,45.65
2019-01-24T02:58:29.988Z,50.29
2019-01-24T02:59:30.151Z,62.01
2019-01-24T03:00:30.335Z,55.42
2019-01-24T03:01:30.498Z,58.84
2019-01-24T03:02:30.665Z,45.41
2019-01-24T03:03:30.829Z,45.90
2019-01-24T03:04:31.004Z,46.14
2019-01-24T03:05:31.147Z,47.85
2019-01-24T03:06:31.333Z,48.10
2019-01-24T03:07:31.490Z,46.39
2019-01-24T03:08:31.662Z,47.61
2019-01-24T03:09:31.822Z,50.78
2019-01-24T03:10:31.998Z,60.30
2019-01-24T03:11:32.167Z,46.39
2019-01-24T03:12:32.334Z,47.36
2019-01-24T03:13:32.500Z,49.07
2019-01-24T03:14:32.674Z,51.76
2019-01-24T03:15:32.833Z,47.61
2019-01-24T03:16:33.000Z,45.90
2019-01-24T03:17:33.165Z,46.88
2019-01-24T03:18:33.336Z,45.65
2019-01-24T03:19:33.507Z,45.90
2019-01-24T03:20:33.673Z,46.88
2019-01-24T03:21:33.844Z,45.90
2019-01-24T03:22:34.007Z,46.14
2019-01-24T03:23:34.173Z,46.88
2019-01-24T03:24:34.343Z,46.14
2019-01-24T03:25:34.511Z,45.17
2019-01-24T03:26:34.675Z,50.29
2019-01-24T03:27:34.849Z,56.64
2019-01-24T03:29:35.166Z,62.50
2019-01-24T03:30:35.347Z,46.39
2019-01-24T03:31:35.510Z,55.91
2019-01-24T03:32:35.685Z,48.58
2019-01-24T03:33:35.860Z,51.27
2019-01-24T03:34:36.008Z,65.92
2019-01-24T03:35:36.198Z,51.03
2019-01-24T03:36:36.350Z,45.65
2019-01-24T03:37:36.504Z,46.14
2019-01-24T03:38:36.677Z,48.58
2019-01-24T03:39:36.840Z,46.39
2019-01-24T03:40:37.021Z,46.88
2019-01-24T03:41:37.182Z,47.36
2019-01-24T03:42:37.353Z,52.49
2019-01-24T03:43:37.516Z,45.41
2019-01-24T03:44:37.678Z,50.05
2019-01-24T03:45:37.852Z,51.03
2019-01-24T03:46:38.026Z,65.19
2019-01-24T03:47:38.192Z,56.64
2019-01-24T03:48:38.356Z,61.77
2019-01-24T03:49:38.528Z,65.43
2019-01-24T03:50:38.691Z,57.37
2019-01-24T03:51:38.855Z,49.07
2019-01-24T03:52:39.020Z,50.29
2019-01-24T03:53:39.200Z,47.36
2019-01-24T03:54:39.349Z,56.64
2019-01-24T03:55:39.546Z,50.05
2019-01-24T03:56:39.677Z,54.69
2019-01-24T03:57:39.842Z,49.07
2019-01-24T03:58:40.009Z,45.65
2019-01-24T03:59:40.184Z,50.78
2019-01-24T04:00:40.348Z,65.67
2019-01-24T04:01:40.514Z,70.31
2019-01-24T04:02:40.675Z,47.85
2019-01-24T04:03:40.837Z,48.34
2019-01-24T04:04:41.010Z,46.63
2019-01-24T04:05:41.183Z,45.90
2019-01-24T04:06:41.361Z,45.65
2019-01-24T04:07:41.550Z,46.39
2019-01-24T04:08:41.686Z,45.90
2019-01-24T04:09:41.848Z,46.88
2019-01-24T04:10:42.014Z,66.16
2019-01-24T04:11:42.184Z,45.90
2019-01-24T04:12:42.353Z,46.14
2019-01-24T04:13:42.512Z,46.14
2019-01-24T04:14:42.679Z,46.14
2019-01-24T04:15:42.843Z,48.58
2019-01-24T04:16:43.011Z,45.41
2019-01-24T04:17:43.178Z,46.88
2019-01-24T04:18:43.341Z,48.10
2019-01-24T04:19:43.501Z,46.88
2019-01-24T04:20:43.677Z,51.51
2019-01-24T04:21:43.836Z,51.51
2019-01-24T04:22:44.024Z,50.05
2019-01-24T04:23:44.168Z,55.18
2019-01-24T04:24:44.332Z,53.96
2019-01-24T04:25:44.490Z,48.83
2019-01-24T04:26:44.660Z,51.03
2019-01-24T04:27:44.832Z,53.96
2019-01-24T04:28:44.978Z,46.39
2019-01-24T04:29:45.158Z,45.65
2019-01-24T04:30:45.324Z,45.90
2019-01-24T04:31:45.506Z,48.10
2019-01-24T04:32:45.657Z,48.58
2019-01-24T04:33:45.842Z,45.90
2019-01-24T04:34:46.081Z,50.05
2019-01-24T04:35:46.198Z,50.05
2019-01-24T04:36:46.332Z,51.51
2019-01-24T04:37:46.538Z,49.07
2019-01-24T04:38:46.665Z,48.10
2019-01-24T04:39:46.827Z,52.25
2019-01-24T04:40:47.015Z,45.90
2019-01-24T04:41:47.154Z,52.49
2019-01-24T04:42:47.355Z,55.66
2019-01-24T04:43:47.482Z,53.22
2019-01-24T04:45:47.799Z,53.47
2019-01-24T04:46:47.958Z,45.41
2019-01-24T04:47:48.157Z,58.84
2019-01-24T04:48:48.291Z,46.14
2019-01-24T04:49:48.474Z,48.10
2019-01-24T04:50:48.642Z,57.62
2019-01-24T04:51:48.802Z,54.20
2019-01-24T04:52:48.981Z,52.73
2019-01-24T04:53:49.141Z,60.55
2019-01-24T04:54:49.303Z,77.39
2019-01-24T04:55:49.466Z,68.12
2019-01-24T04:56:49.627Z,88.87
2019-01-24T04:57:49.792Z,85.69
2019-01-24T04:58:49.966Z,72.27
2019-01-24T04:59:50.113Z,65.43
2019-01-24T05:00:50.285Z,72.02
2019-01-24T05:01:50.445Z,70.07
2019-01-24T05:02:50.627Z,61.28
2019-01-24T05:03:50.777Z,51.76
2019-01-24T05:04:50.960Z,49.56
2019-01-24T05:05:51.751Z,46.88
2019-01-24T05:06:51.316Z,50.29
2019-01-24T05:07:51.489Z,50.78
2019-01-24T05:08:51.652Z,51.27
2019-01-24T05:09:51.820Z,48.83
2019-01-24T05:10:51.984Z,49.56
2019-01-24T05:11:52.152Z,55.91
2019-01-24T05:12:52.316Z,50.29
2019-01-24T05:13:52.483Z,47.12
2019-01-24T05:14:52.651Z,46.88
2019-01-24T05:15:52.810Z,67.63
2019-01-24T05:16:52.989Z,45.65
2019-01-24T05:17:53.161Z,46.39
2019-01-24T05:18:53.309Z,48.34
2019-01-24T05:19:53.485Z,47.61
2019-01-24T05:20:53.654Z,47.36
2019-01-24T05:21:53.821Z,57.37
2019-01-24T05:22:54.001Z,54.20
2019-01-24T05:23:54.143Z,50.54
2019-01-24T05:24:54.309Z,58.59
2019-01-24T05:25:54.469Z,62.74
2019-01-24T05:26:54.650Z,57.37
2019-01-24T05:27:54.808Z,55.91
2019-01-24T05:28:54.984Z,61.28
2019-01-24T05:29:55.133Z,52.98
2019-01-24T05:30:55.323Z,67.38
2019-01-24T05:31:55.488Z,54.69
2019-01-24T05:32:55.653Z,48.58
2019-01-24T05:33:55.818Z,57.86
2019-01-24T05:34:55.985Z,58.84
2019-01-24T05:35:56.161Z,56.88
2019-01-24T05:36:56.322Z,54.44
2019-01-24T05:37:56.482Z,52.98
2019-01-24T05:38:56.648Z,55.42
2019-01-24T05:39:56.824Z,57.37
2019-01-24T05:40:56.978Z,47.36
2019-01-24T05:41:57.146Z,56.15
2019-01-24T05:42:57.312Z,62.50
2019-01-24T05:43:57.478Z,59.81
2019-01-24T05:44:57.645Z,47.36
2019-01-24T05:45:57.815Z,68.36
2019-01-24T05:46:57.982Z,53.71
2019-01-24T05:47:58.143Z,53.71
2019-01-24T05:48:58.318Z,55.66
2019-01-24T05:49:58.493Z,47.36
2019-01-24T05:50:58.664Z,57.62
2019-01-24T05:51:58.816Z,60.79
2019-01-24T05:52:58.997Z,62.26
2019-01-24T05:53:59.161Z,55.18
2019-01-24T05:54:59.328Z,49.32
2019-01-24T05:55:59.510Z,54.20
2019-01-24T05:56:59.663Z,57.86
2019-01-24T05:57:59.826Z,52.98
2019-01-24T05:59:00.001Z,49.56
2019-01-24T06:00:00.187Z,64.21
2019-01-24T06:01:00.337Z,82.76
2019-01-24T06:02:00.477Z,83.25
2019-01-24T06:03:00.643Z,81.05
2019-01-24T06:04:00.835Z,83.25
2019-01-24T06:05:01.003Z,83.25
2019-01-24T06:06:01.174Z,80.81
2019-01-24T06:07:01.330Z,60.06
2019-01-24T06:08:01.501Z,63.72
2019-01-24T06:09:01.666Z,61.77
2019-01-24T06:10:01.829Z,58.11
2019-01-24T06:11:01.993Z,64.21
2019-01-24T06:12:02.191Z,64.94
2019-01-24T06:13:02.335Z,57.37
2019-01-24T06:14:02.505Z,54.44
2019-01-24T06:15:02.673Z,67.87
2019-01-24T06:16:02.839Z,59.33
2019-01-24T06:17:02.999Z,61.28
2019-01-24T06:18:03.177Z,61.52
2019-01-24T06:19:03.338Z,55.66
2019-01-24T06:20:03.508Z,63.48
2019-01-24T06:21:03.685Z,58.35
2019-01-24T06:22:03.851Z,59.81
2019-01-24T06:23:04.042Z,60.30
2019-01-24T06:24:04.165Z,51.76
2019-01-24T06:25:04.326Z,72.27
2019-01-24T06:26:04.493Z,64.94
2019-01-24T06:27:04.653Z,62.01
2019-01-24T06:28:04.819Z,60.55
2019-01-24T06:29:04.980Z,55.18
2019-01-24T06:30:05.154Z,66.16
2019-01-24T06:31:05.321Z,55.66
2019-01-24T06:32:05.487Z,60.55
2019-01-24T06:33:05.664Z,54.93
2019-01-24T06:34:05.819Z,55.66
2019-01-24T06:35:05.984Z,60.79
2019-01-24T06:36:06.182Z,62.99
2019-01-24T06:37:06.310Z,57.86
2019-01-24T06:38:06.477Z,64.94
2019-01-24T06:39:06.641Z,69.82
2019-01-24T06:40:06.816Z,60.55
2019-01-24T06:41:06.975Z,64.45
2019-01-24T06:42:07.141Z,55.42
2019-01-24T06:43:07.307Z,63.72
2019-01-24T06:44:07.473Z,64.70
2019-01-24T06:45:07.640Z,70.31
2019-01-24T06:46:07.808Z,62.26
2019-01-24T06:47:07.975Z,72.02
2019-01-24T06:48:08.141Z,63.72
2019-01-24T06:49:08.302Z,72.27
2019-01-24T06:50:08.469Z,60.79
2019-01-24T06:51:08.644Z,65.43
2019-01-24T06:52:08.832Z,64.94
2019-01-24T06:53:08.998Z,59.08
2019-01-24T06:54:09.155Z,61.52
2019-01-24T06:55:09.328Z,60.30
2019-01-24T06:56:09.494Z,74.22
2019-01-24T06:57:09.665Z,66.89
2019-01-24T06:58:09.835Z,67.14
2019-01-24T06:59:10.001Z,63.72
2019-01-24T07:00:10.164Z,70.56
2019-01-24T07:01:10.321Z,71.04
2019-01-24T07:02:10.493Z,68.60
2019-01-24T07:03:10.667Z,69.34
2019-01-24T07:04:10.821Z,55.91
2019-01-24T07:05:10.995Z,59.81
2019-01-24T07:06:11.157Z,60.06
2019-01-24T07:07:11.321Z,69.09
2019-01-24T07:08:11.479Z,66.41
2019-01-24T07:09:11.654Z,67.63
2019-01-24T07:10:11.876Z,66.89
2019-01-24T07:11:12.039Z,63.96
2019-01-24T07:12:12.202Z,69.34
2019-01-24T07:13:12.359Z,63.96
2019-01-24T07:14:12.509Z,81.05
2019-01-24T07:15:12.669Z,68.60
2019-01-24T07:16:12.850Z,67.38
2019-01-24T07:17:13.014Z,69.34
2019-01-24T07:18:13.164Z,66.41
2019-01-24T07:19:13.333Z,62.99
2019-01-24T07:20:13.494Z,65.67
2019-01-24T07:21:13.661Z,63.23
2019-01-24T07:22:13.830Z,67.38
2019-01-24T07:24:14.134Z,57.37
2019-01-24T07:25:14.303Z,62.01
2019-01-24T07:26:14.459Z,61.52
2019-01-24T07:27:14.626Z,64.45
2019-01-24T07:28:14.780Z,56.40
2019-01-24T07:29:14.947Z,72.02
2019-01-24T07:30:15.132Z,68.85
2019-01-24T07:31:15.280Z,53.47
2019-01-24T07:32:15.447Z,87.89
2019-01-24T07:33:15.615Z,61.52
2019-01-24T07:34:15.782Z,67.38
2019-01-24T07:35:15.945Z,79.10
2019-01-24T07:36:16.116Z,62.74
2019-01-24T07:37:16.278Z,65.92
2019-01-24T07:38:16.453Z,56.64
2019-01-24T07:39:16.615Z,60.06
2019-01-24T07:40:16.789Z,53.47
2019-01-24T07:41:16.942Z,62.01
2019-01-24T07:42:17.098Z,60.06
2019-01-24T07:43:17.265Z,58.59
2019-01-24T07:44:17.430Z,69.58
2019-01-24T07:45:17.592Z,69.58
2019-01-24T07:46:17.768Z,70.31
2019-01-24T07:47:17.940Z,55.42
2019-01-24T07:48:18.120Z,58.35
2019-01-24T07:49:18.273Z,58.59
2019-01-24T07:50:18.434Z,79.10
2019-01-24T07:51:18.600Z,87.16
2019-01-24T07:52:18.768Z,62.01
2019-01-24T07:53:18.930Z,59.57
2019-01-24T07:54:19.103Z,60.30
2019-01-24T07:55:19.272Z,59.57
2019-01-24T07:56:19.448Z,57.13
2019-01-24T07:57:19.604Z,62.50
2019-01-24T07:58:19.773Z,60.55
2019-01-24T07:59:19.939Z,56.15
2019-01-24T08:00:20.833Z,73.00
2019-01-24T08:01:20.764Z,70.80
2019-01-24T08:02:20.412Z,62.99
2019-01-24T08:03:20.578Z,60.55
2019-01-24T08:04:20.748Z,55.91
2019-01-24T08:05:20.917Z,67.14
2019-01-24T08:06:21.086Z,67.87
2019-01-24T08:07:21.246Z,63.96
2019-01-24T08:08:21.458Z,61.28
2019-01-24T08:09:21.584Z,65.19
2019-01-24T08:10:21.758Z,62.26
2019-01-24T08:11:21.912Z,61.77
2019-01-24T08:12:22.075Z,62.26
2019-01-24T08:13:22.242Z,66.89
2019-01-24T08:14:22.409Z,69.34
2019-01-24T08:15:22.574Z,65.67
2019-01-24T08:16:22.714Z,59.57
2019-01-24T08:17:22.884Z,72.51
2019-01-24T08:18:23.056Z,61.04
2019-01-24T08:19:23.220Z,66.65
2019-01-24T08:20:23.382Z,61.04
2019-01-24T08:21:23.579Z,65.92
2019-01-24T08:22:23.714Z,62.50
2019-01-24T08:23:23.877Z,76.90
2019-01-24T08:24:24.038Z,59.57
2019-01-24T08:25:24.214Z,66.65
2019-01-24T08:26:24.374Z,73.24
2019-01-24T08:27:24.536Z,62.50
2019-01-24T08:28:24.707Z,69.34
2019-01-24T08:29:24.869Z,70.07
2019-01-24T08:30:25.038Z,65.43
2019-01-24T08:31:25.207Z,61.28
2019-01-24T08:32:25.376Z,77.64
2019-01-24T08:33:25.551Z,75.20
2019-01-24T08:34:25.704Z,63.96
2019-01-24T08:35:25.868Z,65.67
2019-01-24T08:36:26.039Z,63.23
2019-01-24T08:37:26.209Z,64.94
2019-01-24T08:38:26.374Z,62.99
2019-01-24T08:39:26.548Z,69.82
2019-01-24T08:40:26.705Z,62.74
2019-01-24T08:41:26.872Z,61.77
2019-01-24T08:42:27.040Z,67.63
2019-01-24T08:43:27.220Z,69.09
2019-01-24T08:44:27.383Z,68.85
2019-01-24T08:45:27.529Z,70.07
2019-01-24T08:46:27.688Z,69.09
2019-01-24T08:47:27.856Z,63.96
2019-01-24T08:48:28.022Z,66.89
2019-01-24T08:49:28.208Z,64.45
2019-01-24T08:50:28.377Z,64.45
2019-01-24T08:51:28.536Z,67.63
2019-01-24T08:52:28.709Z,74.71
2019-01-24T08:53:28.898Z,63.23
2019-01-24T08:54:29.044Z,65.67
2019-01-24T08:55:29.226Z,66.89
2019-01-24T08:56:29.378Z,73.49
2019-01-24T08:57:29.564Z,76.66
2019-01-24T08:58:29.725Z,70.56
2019-01-24T08:59:29.973Z,68.60
2019-01-24T09:00:30.050Z,71.78
2019-01-24T09:01:30.219Z,73.73
2019-01-24T09:02:30.385Z,72.27
2019-01-24T09:03:30.567Z,72.02
2019-01-24T09:04:30.732Z,61.52
2019-01-24T09:05:30.924Z,62.99
2019-01-24T09:06:31.060Z,62.01
2019-01-24T09:07:31.214Z,62.99
2019-01-24T09:08:31.394Z,71.29
2019-01-24T09:09:31.554Z,67.38
2019-01-24T09:10:31.725Z,64.45
2019-01-24T09:11:31.895Z,57.62
2019-01-24T09:12:32.066Z,60.06
2019-01-24T09:13:32.228Z,74.22
2019-01-24T09:14:32.392Z,63.96
2019-01-24T09:15:32.554Z,69.09
2019-01-24T09:16:32.709Z,60.06
2019-01-24T09:17:32.871Z,69.09
2019-01-24T09:18:33.079Z,59.57
2019-01-24T09:19:33.220Z,61.28
2019-01-24T09:20:33.382Z,59.57
2019-01-24T09:21:33.546Z,60.79
2019-01-24T09:22:33.721Z,67.87
2019-01-24T09:23:33.881Z,68.60
2019-01-24T09:24:34.051Z,63.72
2019-01-24T09:25:34.219Z,61.77
2019-01-24T09:26:34.387Z,65.19
2019-01-24T09:27:34.552Z,58.11
2019-01-24T09:28:34.733Z,62.50
2019-01-24T09:29:34.895Z,64.70
2019-01-24T09:30:35.050Z,67.38
2019-01-24T09:31:35.215Z,69.58
2019-01-24T09:32:35.384Z,66.89
2019-01-24T09:33:35.543Z,64.45
2019-01-24T09:34:35.718Z,73.00
2019-01-24T09:35:35.876Z,72.75
2019-01-24T09:36:36.041Z,67.87
2019-01-24T09:37:36.211Z,62.50
2019-01-24T09:38:36.383Z,69.34
2019-01-24T09:39:36.549Z,57.86
2019-01-24T09:40:36.722Z,57.13
2019-01-24T09:41:36.889Z,64.94
2019-01-24T09:42:37.062Z,69.58
2019-01-24T09:43:37.230Z,71.04
2019-01-24T09:44:37.403Z,70.07
2019-01-24T09:45:37.553Z,82.52
2019-01-24T09:46:37.725Z,76.66
2019-01-24T09:47:37.876Z,64.70
2019-01-24T09:48:38.070Z,67.87
2019-01-24T09:49:38.207Z,72.51
2019-01-24T09:50:38.398Z,70.56
2019-01-24T09:51:38.552Z,67.38
2019-01-24T09:52:38.722Z,76.90
2019-01-24T09:53:38.882Z,62.26
2019-01-24T09:54:39.056Z,66.41
2019-01-24T09:55:39.216Z,66.65
2019-01-24T09:56:39.395Z,67.63
2019-01-24T09:57:39.548Z,63.72
2019-01-24T09:58:39.709Z,69.09
2019-01-24T09:59:39.904Z,62.74
2019-01-24T10:00:40.046Z,71.53
2019-01-24T10:01:40.211Z,63.23
2019-01-24T10:02:40.375Z,65.19
2019-01-24T10:03:40.556Z,68.12
2019-01-24T10:04:40.732Z,70.31
2019-01-24T10:05:40.902Z,70.31
2019-01-24T10:06:41.072Z,61.77
2019-01-24T10:07:41.248Z,67.63
2019-01-24T10:08:41.395Z,69.09
2019-01-24T10:09:41.580Z,62.01
2019-01-24T10:10:41.740Z,74.71
2019-01-24T10:11:41.911Z,78.61
2019-01-24T10:12:42.077Z,62.99
2019-01-24T10:13:42.254Z,68.12
2019-01-24T10:14:42.419Z,75.44
2019-01-24T10:15:42.591Z,67.63
2019-01-24T10:16:42.751Z,62.74
2019-01-24T10:17:42.915Z,62.74
2019-01-24T10:18:43.085Z,69.09
2019-01-24T10:19:43.252Z,65.67
2019-01-24T10:20:43.423Z,67.14
2019-01-24T10:21:43.597Z,64.21
2019-01-24T10:22:43.761Z,73.00
2019-01-24T10:23:43.955Z,68.60
2019-01-24T10:24:44.116Z,60.30
2019-01-24T10:25:44.268Z,71.04
2019-01-24T10:26:44.434Z,63.23
2019-01-24T10:27:44.598Z,69.09
2019-01-24T10:28:44.771Z,73.00
2019-01-24T10:29:44.934Z,62.99
2019-01-24T10:30:45.099Z,70.56
2019-01-24T10:31:46.469Z,63.23
2019-01-24T10:32:45.466Z,66.16
2019-01-24T10:33:45.615Z,63.48
2019-01-24T10:34:46.698Z,68.12
2019-01-24T10:35:45.960Z,83.25
2019-01-24T10:36:46.114Z,68.36
2019-01-24T10:37:46.266Z,65.67
2019-01-24T10:38:46.471Z,82.28
2019-01-24T10:39:46.641Z,70.31
2019-01-24T10:40:46.837Z,67.87
2019-01-24T10:41:46.997Z,59.81
2019-01-24T10:42:47.178Z,65.92
2019-01-24T10:43:47.356Z,63.48
2019-01-24T10:44:47.521Z,60.06
2019-01-24T10:45:47.693Z,69.09
2019-01-24T10:46:47.850Z,61.77
2019-01-24T10:47:48.026Z,68.60
2019-01-24T10:48:48.182Z,66.41
2019-01-24T10:49:48.335Z,60.79
2019-01-24T10:50:48.506Z,67.87
2019-01-24T10:51:48.664Z,69.58
2019-01-24T10:52:49.782Z,66.89
2019-01-24T10:53:49.033Z,69.82
2019-01-24T10:54:49.195Z,71.04
2019-01-24T10:55:49.366Z,72.02
2019-01-24T10:56:49.546Z,74.46
2019-01-24T10:57:49.711Z,75.44
2019-01-24T10:58:49.890Z,73.24
2019-01-24T10:59:50.050Z,70.56
2019-01-24T11:00:50.246Z,76.42
2019-01-24T11:01:50.367Z,85.94
2019-01-24T11:02:50.536Z,86.67
2019-01-24T11:03:50.717Z,85.69
2019-01-24T11:04:50.878Z,85.69
2019-01-24T11:05:51.041Z,86.43
2019-01-24T11:06:51.217Z,82.03
2019-01-24T11:07:51.662Z,68.60
2019-01-24T11:08:51.754Z,64.21
2019-01-24T11:09:51.828Z,61.04
2019-01-24T11:10:52.048Z,86.67
2019-01-24T11:11:52.053Z,68.60
2019-01-24T11:12:52.301Z,64.45
2019-01-24T11:13:52.571Z,66.65
2019-01-24T11:14:52.679Z,61.52
2019-01-24T11:15:53.072Z,68.36
2019-01-24T11:16:53.102Z,63.96
2019-01-24T11:17:53.298Z,66.65
2019-01-24T11:18:53.429Z,62.01
2019-01-24T11:19:53.950Z,59.81
2019-01-24T11:20:55.050Z,64.45
2019-01-24T11:21:53.938Z,63.48
2019-01-24T11:22:54.076Z,69.09
2019-01-24T11:23:54.200Z,66.41
2019-01-24T11:24:54.397Z,62.50
2019-01-24T11:25:54.562Z,67.87
2019-01-24T11:26:54.734Z,69.58
2019-01-24T11:27:54.893Z,61.28
2019-01-24T11:28:55.112Z,72.02
2019-01-24T11:29:55.238Z,70.07
2019-01-24T11:30:55.443Z,81.54
2019-01-24T11:31:55.587Z,69.09
2019-01-24T11:32:55.753Z,77.88
2019-01-24T11:33:55.933Z,69.09
2019-01-24T11:34:56.098Z,79.59
2019-01-24T11:35:56.273Z,69.58
2019-01-24T11:36:57.163Z,65.19
2019-01-24T11:37:56.584Z,76.66
2019-01-24T11:38:56.747Z,59.08
2019-01-24T11:39:56.932Z,71.04
2019-01-24T11:40:57.079Z,69.82
2019-01-24T11:41:57.263Z,77.15
2019-01-24T11:42:57.475Z,82.28
2019-01-24T11:43:57.600Z,65.19
2019-01-24T11:45:57.926Z,67.87
2019-01-24T11:46:58.091Z,57.86
2019-01-24T11:47:58.285Z,73.73
2019-01-24T11:48:58.411Z,62.01
2019-01-24T11:49:58.572Z,75.68
2019-01-24T11:50:58.751Z,61.77
2019-01-24T11:51:58.916Z,67.38
2019-01-24T11:52:59.089Z,70.31
2019-01-24T11:53:59.247Z,64.45
2019-01-24T11:54:59.412Z,62.01
2019-01-24T11:55:59.567Z,61.77
2019-01-24T11:56:59.738Z,60.06
2019-01-24T11:57:59.902Z,73.24
2019-01-24T11:59:00.084Z,62.99
2019-01-24T12:00:00.291Z,68.36
2019-01-24T12:01:00.410Z,70.80
2019-01-24T12:02:00.573Z,59.33
2019-01-24T12:03:00.728Z,77.64
2019-01-24T12:04:00.888Z,61.52
2019-01-24T12:05:01.069Z,69.58
2019-01-24T12:06:01.231Z,61.52
2019-01-24T12:07:04.277Z,65.43
2019-01-24T12:08:01.545Z,62.50
2019-01-24T12:09:01.749Z,59.81
2019-01-24T12:10:01.860Z,69.34
2019-01-24T12:11:02.027Z,67.87
2019-01-24T12:13:02.349Z,65.67
2019-01-24T12:14:02.516Z,62.26
2019-01-24T12:15:02.681Z,68.36
2019-01-24T12:16:02.880Z,62.74
2019-01-24T12:17:03.054Z,57.37
2019-01-24T12:18:03.193Z,58.59
2019-01-24T12:19:03.391Z,59.57
2019-01-24T12:20:03.512Z,62.74
2019-01-24T12:21:03.689Z,66.65
2019-01-24T12:22:03.852Z,61.04
2019-01-24T12:23:04.023Z,64.70
2019-01-24T12:24:04.194Z,58.84
2019-01-24T12:25:04.372Z,64.70
2019-01-24T12:26:04.508Z,64.70
2019-01-24T12:27:04.669Z,65.19
2019-01-24T12:28:04.874Z,65.92
2019-01-24T12:29:05.017Z,61.04
2019-01-24T12:30:05.192Z,70.56
2019-01-24T12:31:05.369Z,64.70
2019-01-24T12:32:05.531Z,66.41
2019-01-24T12:33:05.706Z,61.04
2019-01-24T12:34:05.851Z,67.38
2019-01-24T12:35:06.007Z,61.04
2019-01-24T12:36:06.270Z,66.16
2019-01-24T12:37:11.258Z,61.28
2019-01-24T12:38:06.531Z,60.06
2019-01-24T12:39:06.747Z,63.72
2019-01-24T12:40:06.885Z,62.26
2019-01-24T12:41:07.024Z,62.99
2019-01-24T12:42:07.193Z,65.43
2019-01-24T12:43:07.367Z,60.79
2019-01-24T12:44:07.517Z,59.81
2019-01-24T12:45:07.679Z,69.09
2019-01-24T12:46:07.879Z,62.26
2019-01-24T12:47:08.007Z,63.96
2019-01-24T12:48:08.196Z,62.50
2019-01-24T12:49:08.370Z,59.57
2019-01-24T12:50:08.511Z,64.21
2019-01-24T12:51:08.647Z,68.36
2019-01-24T12:52:08.828Z,61.77
2019-01-24T12:53:08.973Z,61.28
2019-01-24T12:54:09.167Z,65.43
2019-01-24T12:55:09.391Z,61.77
2019-01-24T12:56:09.495Z,61.52
2019-01-24T12:57:09.646Z,63.23
2019-01-24T12:58:09.809Z,63.48
2019-01-24T12:59:09.998Z,63.72
2019-01-24T13:00:10.145Z,73.73